N609KB PADQ-PAYA

Flight info

Callsign N609KB
Flight time N/A
Altitude 15000
Route JOH V319 YAK
Aircraft STAR/L-SDFGRWY/S

Departure

Time N/A
Airport Kodiak Airport (PADQ)

Arrival

Time 2026-04-21 00:46
Airport Yakutat Airport (PAYA)
Time Latitude Longitude Altitude Speed Heading
2026-04-20 23:54 60.21209 -146.85718 12781 ft 170 kts 21°
2026-04-20 23:54 60.22286 -146.84779 13546 ft 168 kts 17°
2026-04-20 23:54 60.23373 -146.83888 14195 ft 173 kts 18°
2026-04-20 23:55 60.24560 -146.82745 14440 ft 203 kts 23°
2026-04-20 23:55 60.25894 -146.81398 14674 ft 226 kts 22°
2026-04-20 23:55 60.27388 -146.79991 14802 ft 248 kts 21°
2026-04-20 23:55 60.29007 -146.78445 14861 ft 266 kts 22°
2026-04-20 23:56 60.30715 -146.76777 14899 ft 279 kts 22°
2026-04-20 23:56 60.32493 -146.75072 14908 ft 286 kts 22°
2026-04-20 23:56 60.34305 -146.73325 14914 ft 291 kts 22°
2026-04-20 23:56 60.36146 -146.71542 14916 ft 295 kts 22°
2026-04-20 23:57 60.38001 -146.69748 14918 ft 297 kts 22°
2026-04-20 23:57 60.39870 -146.67928 14922 ft 299 kts 22°
2026-04-20 23:57 60.41753 -146.66116 14933 ft 300 kts 22°
2026-04-20 23:57 60.43641 -146.64271 14935 ft 302 kts 22°
2026-04-20 23:58 60.45448 -146.62128 15071 ft 298 kts 40°
2026-04-20 23:58 60.46593 -146.58904 16040 ft 271 kts 68°
2026-04-20 23:58 60.46924 -146.55342 17017 ft 248 kts 91°
2026-04-20 23:58 60.46851 -146.51972 17982 ft 232 kts 100°
2026-04-20 23:59 60.46670 -146.48813 18814 ft 220 kts 102°
2026-04-20 23:59 60.46483 -146.45792 19585 ft 212 kts 102°
2026-04-20 23:59 60.46251 -146.42898 20280 ft 206 kts 109°
2026-04-20 23:59 60.45891 -146.40036 20766 ft 213 kts 113°
2026-04-21 00:00 60.45544 -146.37087 21402 ft 218 kts 109°
2026-04-21 00:00 60.45236 -146.34062 22054 ft 221 kts 110°
2026-04-21 00:00 60.44888 -146.31009 22706 ft 224 kts 112°
2026-04-21 00:00 60.44529 -146.27907 23357 ft 228 kts 111°
2026-04-21 00:01 60.44180 -146.24747 23915 ft 231 kts 110°
2026-04-21 00:01 60.43823 -146.21557 24459 ft 233 kts 110°
2026-04-21 00:01 60.43456 -146.18339 25009 ft 235 kts 110°
2026-04-21 00:01 60.43088 -146.15092 25561 ft 238 kts 109°
2026-04-21 00:02 60.42717 -146.11812 26096 ft 240 kts 109°
2026-04-21 00:02 60.42339 -146.08502 26638 ft 243 kts 109°
2026-04-21 00:02 60.41958 -146.05162 27168 ft 245 kts 109°
2026-04-21 00:02 60.41572 -146.01786 27696 ft 247 kts 108°
2026-04-21 00:03 60.41182 -145.98380 28220 ft 250 kts 108°
2026-04-21 00:03 60.40786 -145.94941 28727 ft 252 kts 108°
2026-04-21 00:03 60.40387 -145.91477 29232 ft 254 kts 108°
2026-04-21 00:03 60.39982 -145.87976 29731 ft 257 kts 107°
2026-04-21 00:04 60.39574 -145.84452 30174 ft 259 kts 107°
2026-04-21 00:04 60.39160 -145.80887 30515 ft 264 kts 107°
2026-04-21 00:04 60.38730 -145.77213 30732 ft 274 kts 107°
2026-04-21 00:04 60.38281 -145.73364 30819 ft 288 kts 107°
2026-04-21 00:05 60.37809 -145.69320 30885 ft 303 kts 107°
2026-04-21 00:05 60.36809 -145.60818 30931 ft 318 kts 107°
2026-04-21 00:06 60.35764 -145.51994 30955 ft 328 kts 107°
2026-04-21 00:06 60.34688 -145.42954 30955 ft 334 kts 107°
2026-04-21 00:07 60.33587 -145.33772 30954 ft 339 kts 107°
2026-04-21 00:07 60.32466 -145.24487 30955 ft 342 kts 107°
2026-04-21 00:08 60.31334 -145.15165 30953 ft 342 kts 107°
2026-04-21 00:08 60.30193 -145.05831 30946 ft 343 kts 107°
2026-04-21 00:09 60.29043 -144.96489 30942 ft 344 kts 107°
2026-04-21 00:09 60.27883 -144.87118 30954 ft 345 kts 107°
2026-04-21 00:10 60.26714 -144.77737 30968 ft 346 kts 107°
2026-04-21 00:10 60.25536 -144.68343 30965 ft 346 kts 107°
2026-04-21 00:11 60.24350 -144.58948 30958 ft 346 kts 107°
2026-04-21 00:11 60.23158 -144.49564 30959 ft 346 kts 107°
2026-04-21 00:12 60.21962 -144.40210 30955 ft 345 kts 108°
2026-04-21 00:12 60.20762 -144.30877 30940 ft 344 kts 108°
2026-04-21 00:13 60.19566 -144.21636 30954 ft 344 kts 108°
2026-04-21 00:13 60.18346 -144.12264 30951 ft 344 kts 108°
2026-04-21 00:14 60.17334 -144.04537 30956 ft 344 kts 108°
2026-04-21 00:14 60.15911 -143.93737 30955 ft 344 kts 108°
2026-04-21 00:15 60.14680 -143.84449 30957 ft 344 kts 108°
2026-04-21 00:15 60.13644 -143.76683 30957 ft 344 kts 108°
2026-04-21 00:16 60.12403 -143.67421 30960 ft 344 kts 108°
2026-04-21 00:16 60.11156 -143.58175 30955 ft 343 kts 108°
2026-04-21 00:17 60.09902 -143.48935 30945 ft 343 kts 108°
2026-04-21 00:17 60.08639 -143.39679 30943 ft 347 kts 109°
2026-04-21 00:18 60.07344 -143.30245 30950 ft 355 kts 109°
2026-04-21 00:18 60.06020 -143.20657 30952 ft 360 kts 109°
2026-04-21 00:19 60.04673 -143.10967 30952 ft 362 kts 109°
2026-04-21 00:19 60.03312 -143.01230 30939 ft 364 kts 109°
2026-04-21 00:20 60.01929 -142.91404 30511 ft 377 kts 109°
2026-04-21 00:20 60.01208 -142.86290 29970 ft 387 kts 109°
2026-04-21 00:20 60.00470 -142.81080 29321 ft 391 kts 109°
2026-04-21 00:20 59.99725 -142.75842 28695 ft 392 kts 109°
2026-04-21 00:21 59.98978 -142.70610 28070 ft 391 kts 109°
2026-04-21 00:21 59.98233 -142.65400 27465 ft 388 kts 110°
2026-04-21 00:21 59.97492 -142.60241 26873 ft 385 kts 110°
2026-04-21 00:21 59.96754 -142.55122 26292 ft 383 kts 110°
2026-04-21 00:22 59.96019 -142.50033 25734 ft 381 kts 111°
2026-04-21 00:22 59.95285 -142.44973 25178 ft 379 kts 111°
2026-04-21 00:22 59.94554 -142.39943 24634 ft 377 kts 111°
2026-04-21 00:22 59.93832 -142.34993 24067 ft 376 kts 112°
2026-04-21 00:23 59.93099 -142.29986 23535 ft 376 kts 112°
2026-04-21 00:23 59.92365 -142.24985 22906 ft 375 kts 112°
2026-04-21 00:23 59.91632 -142.20004 22290 ft 374 kts 112°
2026-04-21 00:23 59.90901 -142.15047 21682 ft 371 kts 112°
2026-04-21 00:24 59.90174 -142.10132 21086 ft 369 kts 111°
2026-04-21 00:24 59.89449 -142.05255 20498 ft 366 kts 111°
2026-04-21 00:24 59.88730 -142.00423 19932 ft 362 kts 111°
2026-04-21 00:24 59.88015 -141.95636 19372 ft 359 kts 111°
2026-04-21 00:25 59.87305 -141.90893 18824 ft 356 kts 111°
2026-04-21 00:25 59.86601 -141.86207 18280 ft 352 kts 111°
2026-04-21 00:25 59.85902 -141.81560 17658 ft 348 kts 111°
2026-04-21 00:25 59.85210 -141.76980 17042 ft 342 kts 111°
2026-04-21 00:26 59.84536 -141.72525 16444 ft 331 kts 111°
2026-04-21 00:26 59.83878 -141.68201 15827 ft 323 kts 111°
2026-04-21 00:26 59.83236 -141.63976 15251 ft 316 kts 111°
2026-04-21 00:26 59.82605 -141.59836 14687 ft 310 kts 111°
2026-04-21 00:27 59.81984 -141.55780 14131 ft 304 kts 111°
2026-04-21 00:27 59.81373 -141.51791 13554 ft 299 kts 111°
2026-04-21 00:27 59.80769 -141.47868 12942 ft 295 kts 111°
2026-04-21 00:27 59.80173 -141.43996 12344 ft 291 kts 111°
2026-04-21 00:28 59.79584 -141.40179 11755 ft 288 kts 111°
2026-04-21 00:28 59.78999 -141.36399 11173 ft 285 kts 110°
2026-04-21 00:28 59.78420 -141.32662 10607 ft 282 kts 110°
2026-04-21 00:28 59.77844 -141.28955 10049 ft 280 kts 110°
2026-04-21 00:29 59.77272 -141.25284 9452 ft 277 kts 110°
2026-04-21 00:29 59.76705 -141.21650 8845 ft 274 kts 110°
2026-04-21 00:29 59.76143 -141.18049 8254 ft 272 kts 110°
2026-04-21 00:29 59.75585 -141.14493 7669 ft 269 kts 110°
2026-04-21 00:30 59.75032 -141.10968 7098 ft 266 kts 109°
2026-04-21 00:30 59.74492 -141.07532 6535 ft 256 kts 109°
2026-04-21 00:30 59.73968 -141.04217 5933 ft 248 kts 109°
2026-04-21 00:30 59.73458 -141.00986 5337 ft 243 kts 109°
2026-04-21 00:31 59.72960 -140.97815 4766 ft 239 kts 110°
2026-04-21 00:31 59.72462 -140.94691 4171 ft 236 kts 110°
2026-04-21 00:31 59.71971 -140.91603 3602 ft 234 kts 109°
2026-04-21 00:31 59.71500 -140.88630 3258 ft 222 kts 109°
2026-04-21 00:32 59.71048 -140.85778 3092 ft 206 kts 110°
2026-04-21 00:32 59.70614 -140.83085 2664 ft 206 kts 110°
2026-04-21 00:32 59.70187 -140.80428 2253 ft 205 kts 109°
2026-04-21 00:32 59.69757 -140.77737 1847 ft 203 kts 109°
2026-04-21 00:33 59.69345 -140.75135 1638 ft 192 kts 109°
2026-04-21 00:33 59.68947 -140.72657 1544 ft 195 kts 109°
2026-04-21 00:33 59.68507 -140.69955 1500 ft 217 kts 109°
2026-04-21 00:33 59.68030 -140.66982 1480 ft 235 kts 108°
2026-04-21 00:34 59.67520 -140.63798 1474 ft 248 kts 109°
2026-04-21 00:34 59.66987 -140.60512 1470 ft 253 kts 109°
2026-04-21 00:34 59.66449 -140.57200 1467 ft 250 kts 109°
2026-04-21 00:34 59.65929 -140.53981 1467 ft 242 kts 109°
2026-04-21 00:35 59.65422 -140.50852 1467 ft 236 kts 109°
2026-04-21 00:35 59.64921 -140.47790 1468 ft 231 kts 109°
2026-04-21 00:35 59.64430 -140.44790 1468 ft 227 kts 109°
2026-04-21 00:35 59.63951 -140.41843 1468 ft 224 kts 109°
2026-04-21 00:36 59.63477 -140.38938 1474 ft 221 kts 110°
2026-04-21 00:36 59.62994 -140.36000 1473 ft 230 kts 109°
2026-04-21 00:36 59.62489 -140.32943 1475 ft 238 kts 109°
2026-04-21 00:36 59.61974 -140.29779 1470 ft 245 kts 109°
2026-04-21 00:37 59.61438 -140.26544 1468 ft 249 kts 109°
2026-04-21 00:37 59.60907 -140.23314 1470 ft 245 kts 109°
2026-04-21 00:37 59.60383 -140.20143 1471 ft 241 kts 110°
2026-04-21 00:37 59.59863 -140.17024 1471 ft 238 kts 110°
2026-04-21 00:38 59.59354 -140.13936 1478 ft 235 kts 110°
2026-04-21 00:38 59.58846 -140.10883 1477 ft 233 kts 110°
2026-04-21 00:38 59.58339 -140.07847 1477 ft 232 kts 110°
2026-04-21 00:38 59.57836 -140.04838 1476 ft 230 kts 110°
2026-04-21 00:39 59.57339 -140.01844 1485 ft 229 kts 110°
2026-04-21 00:39 59.56851 -139.98868 1484 ft 227 kts 109°
2026-04-21 00:39 59.56350 -139.95917 1476 ft 226 kts 111°
2026-04-21 00:39 59.55819 -139.93012 1476 ft 225 kts 111°
2026-04-21 00:40 59.55279 -139.90125 1476 ft 224 kts 112°
2026-04-21 00:40 59.54733 -139.87267 1484 ft 217 kts 114°
2026-04-21 00:40 59.54224 -139.84653 1484 ft 193 kts 114°
2026-04-21 00:40 59.53937 -139.82917 2396 ft 82 kts 109°
2026-04-21 00:41 59.53760 -139.81407 2002 ft 140 kts 109°
2026-04-21 00:41 59.53411 -139.79554 1950 ft 144 kts 119°
2026-04-21 00:41 59.52948 -139.77727 1684 ft 154 kts 124°
2026-04-21 00:41 59.52562 -139.75858 1456 ft 139 kts 114°
2026-04-21 00:42 59.52157 -139.74322 1448 ft 120 kts 130°
2026-04-21 00:42 59.51679 -139.72839 1476 ft 136 kts 129°
2026-04-21 00:42 59.51091 -139.71278 1494 ft 145 kts 136°
2026-04-21 00:42 59.50420 -139.69820 1571 ft 143 kts 140°
2026-04-21 00:43 59.49741 -139.68393 1584 ft 144 kts 139°
2026-04-21 00:43 59.49056 -139.66957 1554 ft 146 kts 140°
2026-04-21 00:43 59.48351 -139.65536 1562 ft 145 kts 140°
2026-04-21 00:43 59.47639 -139.64114 1462 ft 144 kts 141°
2026-04-21 00:44 59.46937 -139.62699 1190 ft 145 kts 141°
2026-04-21 00:44 59.46268 -139.61317 1030 ft 131 kts 138°
2026-04-21 00:44 59.46031 -139.59755 1014 ft 124 kts 76°
2026-04-21 00:45 59.47360 -139.58849 712 ft 108 kts 309°
2026-04-21 00:45 59.47881 -139.59915 656 ft 110 kts 307°
2026-04-21 00:45 59.48402 -139.61029 518 ft 111 kts 308°
2026-04-21 00:45 59.48966 -139.62091 389 ft 113 kts 303°
2026-04-21 00:46 59.49497 -139.63275 138 ft 116 kts 309°
2026-04-21 00:46 59.50010 -139.64285 61 ft 91 kts 307°
2026-04-21 00:46 59.50406 -139.65064 49 ft 70 kts 314°
2026-04-21 00:46 59.50693 -139.65634 49 ft 48 kts 314°
2026-04-21 00:47 59.50889 -139.66030 44 ft 34 kts 313°
2026-04-21 00:47 59.50965 -139.66298 45 ft 18 kts 237°
2026-04-21 00:47 59.50950 -139.66567 45 ft 27 kts 311°